Time;durP1;ratioP1;P1;durP2;ratioP2;P2;SDS_P1;SDS_P2;PMS_P1;PMS_P2;Temp;Humidity;BMP_temperature;BMP_pressure;BME280_temperature;BME280_humidity;BME280_pressure;Samples;Min_cycle;Max_cycle;Signal;HPM_P1;HPM_P2
2021/11/01 00:00:54;;;;;;;148.10;72.68;;;13.00;99.90;;;;;;5072761;28;20020;-87
2021/11/01 00:03:20;;;;;;;137.52;69.20;;;13.00;99.90;;;;;;5052083;28;20074;-77
2021/11/01 00:05:49;;;;;;;144.82;73.25;;;13.00;99.90;;;;;;5051844;28;20028;-77
2021/11/01 00:08:15;;;;;;;139.98;73.55;;;12.90;99.90;;;;;;5051918;28;20032;-77
2021/11/01 00:10:41;;;;;;;140.00;70.03;;;12.90;99.90;;;;;;5069649;28;20032;-77
2021/11/01 00:13:07;;;;;;;137.73;69.78;;;12.90;99.90;;;;;;5066667;28;20520;-77
2021/11/01 00:15:33;;;;;;;142.35;70.03;;;12.90;99.90;;;;;;5051045;28;20067;-77
2021/11/01 00:17:59;;;;;;;147.35;70.43;;;12.90;99.90;;;;;;5052984;28;20020;-77
2021/11/01 00:20:28;;;;;;;139.55;70.25;;;12.90;99.90;;;;;;5071577;28;20019;-77
2021/11/01 00:22:54;;;;;;;141.30;71.00;;;12.90;99.90;;;;;;5071247;28;20249;-77
2021/11/01 00:25:20;;;;;;;149.48;71.95;;;12.90;99.90;;;;;;5053570;28;20063;-77
2021/11/01 00:27:46;;;;;;;145.57;73.82;;;12.90;99.90;;;;;;5053555;28;20455;-77
2021/11/01 00:30:12;;;;;;;148.52;71.00;;;13.00;99.90;;;;;;5053512;28;20112;-77
2021/11/01 00:32:38;;;;;;;145.00;71.32;;;12.90;99.90;;;;;;5071447;28;20474;-77
2021/11/01 00:35:06;;;;;;;143.55;71.22;;;12.90;99.90;;;;;;5071569;28;20027;-77
2021/11/01 00:37:31;;;;;;;146.63;69.43;;;13.00;99.90;;;;;;5071590;28;20390;-77
2021/11/01 00:39:59;;;;;;;146.95;72.57;;;13.00;99.90;;;;;;5053492;28;20017;-77
2021/11/01 00:42:26;;;;;;;142.10;70.20;;;13.00;99.90;;;;;;5071302;28;20112;-77
2021/11/01 00:44:52;;;;;;;146.07;70.43;;;13.00;99.90;;;;;;5053365;28;20520;-77
2021/11/01 00:47:18;;;;;;;143.65;71.13;;;13.00;99.90;;;;;;5071349;28;20025;-77
2021/11/01 00:49:44;;;;;;;143.85;70.32;;;13.00;99.90;;;;;;5053388;28;20397;-77
2021/11/01 00:52:10;;;;;;;149.98;70.90;;;12.90;99.90;;;;;;5053406;28;20402;-77
2021/11/01 00:54:37;;;;;;;143.90;73.15;;;12.90;99.90;;;;;;5071092;28;20097;-77
2021/11/01 00:57:03;;;;;;;146.10;71.20;;;13.00;99.90;;;;;;5071247;28;20117;-77
2021/11/01 00:59:29;;;;;;;148.65;70.80;;;13.00;99.90;;;;;;5071225;28;20029;-77
2021/11/01 01:01:55;;;;;;;143.25;72.40;;;12.90;99.90;;;;;;5056528;28;20138;-77
2021/11/01 01:04:24;;;;;;;143.23;71.57;;;12.90;99.90;;;;;;5057360;28;20474;-77
2021/11/01 01:06:50;;;;;;;138.82;69.65;;;12.90;99.90;;;;;;5075088;28;20477;-77
2021/11/01 01:09:16;;;;;;;152.15;71.18;;;12.90;99.90;;;;;;5075197;28;20098;-77
2021/11/01 01:11:42;;;;;;;155.10;72.88;;;12.90;99.90;;;;;;5074974;28;20474;-77
2021/11/01 01:14:08;;;;;;;143.30;72.13;;;12.90;99.90;;;;;;5074957;28;20385;-77
2021/11/01 01:16:41;;;;;;;144.02;68.43;;;12.90;99.90;;;;;;5074912;28;20025;-77
2021/11/01 01:19:15;;;;;;;148.73;72.13;;;12.90;99.90;;;;;;5074901;28;20052;-77
2021/11/01 01:24:25;;;;;;;137.27;70.13;;;12.80;99.90;;;;;;5063983;28;20079;-77
2021/11/01 01:26:51;;;;;;;143.60;70.20;;;12.80;99.90;;;;;;5054733;28;20048;-77
2021/11/01 01:29:17;;;;;;;139.52;68.63;;;12.80;99.90;;;;;;5036840;28;20055;-77
2021/11/01 01:31:43;;;;;;;138.35;68.32;;;12.80;99.90;;;;;;5054708;28;20029;-77
2021/11/01 01:34:09;;;;;;;142.77;68.05;;;12.80;99.90;;;;;;5054553;28;20036;-77
2021/11/01 01:36:35;;;;;;;142.77;69.60;;;12.80;99.90;;;;;;5054445;28;20100;-77
2021/11/01 01:39:01;;;;;;;141.60;68.63;;;12.80;99.90;;;;;;5036634;28;20029;-77
2021/11/01 01:41:28;;;;;;;140.50;69.60;;;12.80;99.90;;;;;;5036563;28;20036;-77
2021/11/01 01:44:01;;;;;;;135.55;67.85;;;12.70;99.90;;;;;;5054521;28;20017;-77
2021/11/01 01:46:29;;;;;;;140.75;68.60;;;12.80;99.90;;;;;;5054281;28;20552;-77
2021/11/01 01:48:56;;;;;;;147.40;68.43;;;12.80;99.90;;;;;;5054432;28;20261;-77
2021/11/01 01:51:27;;;;;;;138.32;66.97;;;12.70;99.90;;;;;;5054133;28;20048;-77
2021/11/01 01:53:53;;;;;;;133.15;67.05;;;12.70;99.90;;;;;;5036186;28;20423;-77
2021/11/01 01:56:19;;;;;;;138.20;68.00;;;12.80;99.90;;;;;;5054164;28;20055;-77
2021/11/01 01:58:49;;;;;;;141.27;65.88;;;12.80;99.90;;;;;;5054128;28;20013;-77
2021/11/01 02:01:22;;;;;;;133.85;66.25;;;12.70;99.90;;;;;;5038101;28;20056;-77
2021/11/01 02:03:50;;;;;;;141.20;64.72;;;12.70;99.90;;;;;;5055108;28;20382;-77
2021/11/01 02:06:42;;;;;;;129.38;64.50;;;12.70;99.90;;;;;;5039591;28;20605;-77
2021/11/01 02:09:26;;;;;;;133.88;62.40;;;12.70;99.90;;;;;;5055240;28;20100;-77
2021/11/01 02:14:46;;;;;;;131.13;62.83;;;12.70;99.90;;;;;;5054958;28;20082;-77
2021/11/01 02:17:20;;;;;;;135.10;63.30;;;12.70;99.90;;;;;;5036956;28;20064;-77
2021/11/01 02:19:49;;;;;;;120.05;58.60;;;12.70;99.90;;;;;;5037097;28;20075;-77
2021/11/01 02:22:32;;;;;;;122.55;60.58;;;12.70;99.90;;;;;;5054692;28;20045;-77
2021/11/01 02:25:04;;;;;;;122.05;58.13;;;12.60;99.90;;;;;;5036785;28;20096;-77
2021/11/01 02:27:33;;;;;;;120.28;57.70;;;12.60;99.90;;;;;;5054972;28;20063;-77
2021/11/01 02:30:00;;;;;;;127.95;58.83;;;12.60;99.90;;;;;;5036858;28;20128;-77
2021/11/01 02:32:26;;;;;;;115.35;53.90;;;12.60;99.90;;;;;;5036585;28;20080;-77
2021/11/01 02:34:53;;;;;;;115.22;54.35;;;12.70;99.90;;;;;;5054857;28;20025;-77
2021/11/01 02:37:20;;;;;;;128.20;56.38;;;12.70;99.90;;;;;;5054490;28;20018;-77
2021/11/01 02:39:54;;;;;;;107.97;51.35;;;12.70;99.90;;;;;;5054580;28;20086;-77
2021/11/01 02:42:22;;;;;;;115.28;51.63;;;12.70;99.90;;;;;;5054671;28;20021;-77
2021/11/01 02:44:53;;;;;;;102.28;48.75;;;12.70;99.90;;;;;;5054533;28;20029;-77
2021/11/01 02:47:19;;;;;;;96.65;47.25;;;12.70;99.90;;;;;;5054629;28;20052;-76
2021/11/01 02:49:45;;;;;;;98.07;46.20;;;12.60;99.90;;;;;;5054336;28;20057;-77
2021/11/01 02:52:11;;;;;;;104.10;49.63;;;12.70;99.90;;;;;;5054245;28;20129;-77
2021/11/01 02:54:38;;;;;;;104.75;48.55;;;12.70;99.90;;;;;;5036121;28;20192;-78
2021/11/01 02:57:04;;;;;;;93.63;45.50;;;12.70;99.90;;;;;;5054494;28;20029;-77
2021/11/01 02:59:29;;;;;;;94.07;42.83;;;12.60;99.90;;;;;;5054409;28;20044;-77
2021/11/01 03:01:58;;;;;;;93.07;43.95;;;12.60;99.90;;;;;;5054348;28;20624;-77
2021/11/01 03:04:25;;;;;;;95.07;45.67;;;12.70;99.90;;;;;;5054205;28;20025;-77
2021/11/01 03:06:51;;;;;;;94.80;44.88;;;12.70;99.90;;;;;;5054257;28;20029;-77
2021/11/01 03:09:18;;;;;;;90.90;42.60;;;12.70;99.90;;;;;;5054139;28;20094;-77
2021/11/01 03:11:44;;;;;;;91.93;43.92;;;12.70;99.90;;;;;;5053816;28;20029;-77
2021/11/01 03:14:12;;;;;;;94.65;43.53;;;12.60;99.90;;;;;;5035957;28;20358;-77
2021/11/01 03:16:38;;;;;;;87.35;41.80;;;12.70;99.90;;;;;;5035761;28;20178;-77
2021/11/01 03:19:18;;;;;;;88.78;41.55;;;12.60;99.90;;;;;;5050170;28;20382;-77
2021/11/01 03:21:45;;;;;;;88.63;41.92;;;12.60;99.90;;;;;;5057175;28;20048;-77
2021/11/01 03:24:13;;;;;;;87.78;40.22;;;12.70;99.90;;;;;;5054874;28;20069;-77
2021/11/01 03:26:40;;;;;;;83.22;41.55;;;12.70;99.90;;;;;;5073697;28;20678;-77
2021/11/01 03:29:08;;;;;;;87.53;39.28;;;12.70;99.90;;;;;;5073620;28;20064;-77
2021/11/01 03:31:36;;;;;;;86.95;38.80;;;12.70;99.90;;;;;;5055358;28;20043;-77
2021/11/01 03:34:03;;;;;;;73.75;35.97;;;12.70;99.90;;;;;;5055477;28;20020;-77
2021/11/01 03:36:29;;;;;;;79.15;36.55;;;12.70;99.90;;;;;;5055540;28;20493;-77
2021/11/01 03:38:57;;;;;;;71.40;36.88;;;12.70;99.90;;;;;;5055477;28;20017;-77
2021/11/01 03:41:25;;;;;;;77.13;35.08;;;12.70;99.90;;;;;;5055479;28;20366;-77
2021/11/01 03:44:01;;;;;;;75.85;35.28;;;12.70;99.90;;;;;;5055389;28;20116;-77
2021/11/01 03:46:41;;;;;;;81.80;36.88;;;12.70;99.90;;;;;;5073447;28;20054;-77
2021/11/01 03:49:09;;;;;;;78.80;35.03;;;12.70;99.90;;;;;;5055314;28;20021;-77
2021/11/01 03:52:08;;;;;;;70.25;33.05;;;12.70;99.90;;;;;;5055005;28;20039;-77
2021/11/01 03:54:34;;;;;;;74.43;34.58;;;12.70;99.90;;;;;;5055012;28;20025;-77
2021/11/01 03:57:01;;;;;;;71.95;33.20;;;12.70;99.90;;;;;;5073437;28;20052;-77
2021/11/01 03:59:27;;;;;;;72.97;33.90;;;12.70;99.90;;;;;;5055201;28;20027;-77
2021/11/01 04:01:53;;;;;;;70.18;34.25;;;12.70;99.90;;;;;;5072744;28;20017;-77
2021/11/01 04:04:19;;;;;;;71.05;34.05;;;12.70;99.90;;;;;;5039536;28;20025;-77
2021/11/01 04:06:45;;;;;;;77.75;36.47;;;12.70;99.90;;;;;;5053170;28;20036;-77
2021/11/01 04:09:13;;;;;;;73.60;33.53;;;12.70;99.90;;;;;;5052640;28;20107;-77
2021/11/01 04:11:43;;;;;;;76.07;34.35;;;12.70;99.90;;;;;;5035039;28;20033;-77
2021/11/01 04:14:18;;;;;;;67.13;32.10;;;12.70;99.90;;;;;;5052905;28;20405;-77
2021/11/01 04:16:48;;;;;;;68.00;32.38;;;12.70;99.90;;;;;;5034958;28;20028;-77
2021/11/01 04:21:46;;;;;;;72.28;32.45;;;12.80;99.90;;;;;;5052625;28;20064;-77
2021/11/01 04:24:14;;;;;;;77.82;34.78;;;12.80;99.90;;;;;;5034915;28;20375;-77
2021/11/01 04:26:42;;;;;;;75.90;35.33;;;12.80;99.90;;;;;;5035072;28;20025;-77
2021/11/01 04:29:08;;;;;;;80.07;37.17;;;12.70;99.90;;;;;;5052814;28;20070;-77
2021/11/01 04:31:37;;;;;;;81.13;38.63;;;12.70;99.90;;;;;;5034675;28;20496;-77
2021/11/01 04:34:12;;;;;;;78.47;38.70;;;12.60;99.90;;;;;;5033963;28;20021;-77
2021/11/01 04:36:39;;;;;;;82.50;39.63;;;12.60;99.90;;;;;;5052578;28;20071;-77
2021/11/01 04:54:49;;;;;;;111.75;53.95;;;12.60;99.90;;;;;;5052819;28;20096;-77
2021/11/01 04:57:18;;;;;;;109.22;53.13;;;12.60;99.90;;;;;;5034604;28;20485;-77
2021/11/01 04:59:44;;;;;;;118.65;56.60;;;12.60;99.90;;;;;;5052538;28;20454;-77
2021/11/01 05:02:10;;;;;;;107.90;53.60;;;12.60;99.90;;;;;;5034553;28;20044;-76
2021/11/01 05:04:37;;;;;;;115.38;55.70;;;12.60;99.90;;;;;;5052339;28;20474;-77
2021/11/01 05:07:06;;;;;;;112.13;53.78;;;12.60;99.90;;;;;;5034360;28;20474;-77
2021/11/01 05:09:36;;;;;;;111.00;53.03;;;12.60;99.90;;;;;;5034301;28;20028;-77
2021/11/01 05:14:40;;;;;;;108.07;54.33;;;12.60;99.90;;;;;;5052393;28;20036;-77
2021/11/01 05:17:19;;;;;;;113.43;56.30;;;12.60;99.90;;;;;;5034313;28;20158;-77
2021/11/01 05:20:04;;;;;;;115.00;56.95;;;12.60;99.90;;;;;;5052328;28;20463;-77
2021/11/01 05:25:20;;;;;;;114.13;55.45;;;12.60;99.90;;;;;;5069860;28;20055;-77
2021/11/01 05:30:32;;;;;;;117.07;57.22;;;12.50;99.90;;;;;;5072348;28;20048;-77
2021/11/01 05:35:30;;;;;;;107.35;51.50;;;12.50;99.90;;;;;;5072225;28;20090;-77
2021/11/01 05:37:56;;;;;;;99.97;48.30;;;12.50;99.90;;;;;;5054114;28;20040;-77
2021/11/01 05:40:22;;;;;;;101.35;47.72;;;12.50;99.90;;;;;;5053929;28;20359;-76
2021/11/01 05:42:48;;;;;;;106.85;51.00;;;12.50;99.90;;;;;;5071971;28;20059;-77
2021/11/01 05:45:14;;;;;;;102.22;48.67;;;12.50;99.90;;;;;;5072074;28;20028;-77
2021/11/01 05:47:41;;;;;;;94.25;45.85;;;12.40;99.90;;;;;;5074735;28;20497;-77
2021/11/01 05:50:08;;;;;;;91.95;45.92;;;12.50;99.90;;;;;;5057570;28;20032;-77
2021/11/01 05:52:34;;;;;;;103.18;48.38;;;12.50;99.90;;;;;;5057680;28;20108;-77
2021/11/01 06:03:26;;;;;;;76.15;35.20;;;12.40;99.90;;;;;;5072246;28;20210;-77
2021/11/01 06:13:50;;;;;;;83.50;38.60;;;12.40;99.90;;;;;;5072656;28;20429;-77
2021/11/01 06:16:16;;;;;;;97.32;44.95;;;12.40;99.90;;;;;;5055581;28;20500;-77
2021/11/01 06:18:41;;;;;;;114.47;53.88;;;12.40;99.90;;;;;;5073784;28;20021;-77
2021/11/01 06:21:16;;;;;;;122.38;59.67;;;12.40;99.90;;;;;;5055510;28;20029;-77
2021/11/01 06:23:52;;;;;;;131.07;61.13;;;12.40;99.90;;;;;;5073799;28;20397;-77
2021/11/01 06:26:19;;;;;;;135.40;65.40;;;12.40;99.90;;;;;;5073678;28;20134;-77
2021/11/01 06:28:46;;;;;;;136.77;68.43;;;12.30;99.90;;;;;;5073593;28;20048;-77
2021/11/01 06:31:38;;;;;;;138.27;67.32;;;12.30;99.90;;;;;;5055571;28;20020;-77
2021/11/01 06:42:13;;;;;;;137.30;66.03;;;12.20;99.90;;;;;;5073639;28;20106;-77
2021/11/01 06:45:14;;;;;;;139.32;66.93;;;12.20;99.90;;;;;;5055340;28;20024;-77
2021/11/01 06:58:22;;;;;;;138.95;65.10;;;12.10;99.90;;;;;;5072957;28;20035;-77
2021/11/01 07:16:50;;;;;;;133.07;64.88;;;12.00;99.90;;;;;;5072585;28;20072;-77
2021/11/01 07:19:32;;;;;;;138.02;64.40;;;12.00;99.90;;;;;;5069774;28;20019;-77
2021/11/01 07:22:28;;;;;;;135.85;64.43;;;11.90;99.90;;;;;;5052403;28;20140;-77
2021/11/01 08:51:38;;;;;;;122.07;60.10;;;12.40;99.90;;;;;;5091318;28;20123;-89
2021/11/01 09:02:54;;;;;;;129.60;60.20;;;12.40;99.90;;;;;;5064932;28;20398;-89
2021/11/01 09:05:41;;;;;;;138.63;64.55;;;12.40;99.90;;;;;;5064925;28;20025;-88
2021/11/01 09:27:07;;;;;;;128.02;64.88;;;12.50;99.90;;;;;;5082746;28;20036;-90
2021/11/01 09:43:07;;;;;;;136.40;63.10;;;12.40;99.90;;;;;;5069446;28;20235;-88
2021/11/01 09:45:36;;;;;;;137.02;65.78;;;12.20;99.90;;;;;;5060376;28;20149;-88
2021/11/01 09:48:04;;;;;;;142.95;66.32;;;12.20;99.90;;;;;;5075714;28;20111;-86
2021/11/01 09:50:30;;;;;;;146.48;66.20;;;12.20;99.90;;;;;;5073303;28;20099;-88
2021/11/01 09:52:58;;;;;;;146.25;65.70;;;12.10;99.90;;;;;;5066314;28;20028;-87
2021/11/01 10:00:36;;;;;;;134.75;63.97;;;12.20;99.90;;;;;;5057837;28;20051;-88
2021/11/01 10:03:01;;;;;;;145.02;63.92;;;12.20;99.90;;;;;;5053222;28;20052;-87
2021/11/01 10:05:28;;;;;;;135.20;61.67;;;12.20;99.90;;;;;;5054207;28;20360;-88
2021/11/01 10:07:54;;;;;;;140.02;65.32;;;12.20;99.90;;;;;;5062599;28;20490;-88
2021/11/01 10:10:20;;;;;;;135.02;63.13;;;12.30;99.90;;;;;;5056014;28;20073;-87
2021/11/01 10:12:49;;;;;;;135.32;60.83;;;12.30;99.90;;;;;;5051332;28;20025;-86
2021/11/01 10:18:08;;;;;;;132.32;61.03;;;12.30;99.90;;;;;;5053992;28;20032;-87
2021/11/01 10:20:40;;;;;;;124.30;59.25;;;12.30;99.90;;;;;;5061732;28;20032;-88
2021/11/01 10:23:17;;;;;;;127.97;61.60;;;12.30;99.90;;;;;;5046453;28;20044;-87
2021/11/01 10:25:43;;;;;;;132.63;61.33;;;12.30;99.90;;;;;;5089582;28;20012;-87
2021/11/01 10:28:09;;;;;;;125.90;60.65;;;12.30;99.90;;;;;;5061937;28;20036;-88
2021/11/01 10:30:36;;;;;;;121.90;58.35;;;12.30;99.90;;;;;;5053334;28;20029;-87
2021/11/01 10:33:09;;;;;;;121.70;57.55;;;12.30;99.90;;;;;;5034435;28;20488;-87
2021/11/01 10:35:40;;;;;;;113.75;56.67;;;12.30;99.90;;;;;;5035679;28;20036;-87
2021/11/01 10:38:36;;;;;;;115.93;57.78;;;12.30;99.90;;;;;;5053449;28;20021;-87
2021/11/01 10:41:27;;;;;;;110.22;56.38;;;12.30;99.90;;;;;;5054184;28;20027;-87
2021/11/01 10:58:17;;;;;;;123.75;60.35;;;12.30;99.90;;;;;;5054354;28;20102;-88
2021/11/01 11:25:14;;;;;;;120.80;62.53;;;12.50;99.90;;;;;;5074115;28;20052;-85
2021/11/01 11:28:02;;;;;;;115.32;58.70;;;12.50;99.90;;;;;;5073665;28;20390;-85
2021/11/01 11:30:45;;;;;;;109.60;56.97;;;12.60;99.90;;;;;;5056383;28;20500;-92
2021/11/01 11:33:31;;;;;;;110.10;55.33;;;12.60;99.90;;;;;;5065305;28;20029;-85
2021/11/01 11:39:38;;;;;;;90.43;47.42;;;12.70;99.90;;;;;;5059652;28;20101;-89
2021/11/01 11:47:39;;;;;;;66.72;35.28;;;12.80;99.90;;;;;;5071349;28;20040;-86
2021/11/01 11:50:23;;;;;;;94.55;45.55;;;12.90;99.90;;;;;;5070889;28;20025;-87
2021/11/01 11:52:49;;;;;;;99.82;50.58;;;12.80;99.90;;;;;;5053088;28;20587;-87
2021/11/01 11:55:22;;;;;;;118.95;56.10;;;12.80;99.90;;;;;;5070626;28;20028;-86
2021/11/01 11:58:06;;;;;;;104.97;52.55;;;12.70;99.90;;;;;;5070917;28;20359;-87
2021/11/01 12:00:34;;;;;;;113.05;53.35;;;12.70;99.90;;;;;;5070846;28;20016;-87
2021/11/01 12:03:16;;;;;;;118.78;54.72;;;12.70;99.90;;;;;;5070609;28;20158;-88
2021/11/01 12:06:01;;;;;;;101.75;50.97;;;12.70;99.90;;;;;;5071463;28;20058;-87
2021/11/01 12:18:59;;;;;;;114.82;54.00;;;12.70;99.90;;;;;;5060300;28;20036;-77
2021/11/01 12:21:26;;;;;;;119.28;56.28;;;12.70;99.90;;;;;;5044723;28;20440;-77
2021/11/01 12:23:54;;;;;;;136.52;63.47;;;12.70;99.90;;;;;;5057339;28;20024;-77
2021/11/01 12:26:22;;;;;;;130.27;60.63;;;12.80;99.90;;;;;;5057074;28;20025;-76
2021/11/01 12:28:58;;;;;;;113.43;53.65;;;12.80;99.90;;;;;;5059689;28;20413;-76
2021/11/01 12:31:25;;;;;;;103.25;53.45;;;12.80;99.90;;;;;;5060298;28;20033;-76
2021/11/01 12:36:46;;;;;;;102.43;50.47;;;12.70;99.90;;;;;;5057185;28;20028;-77
2021/11/01 12:39:48;;;;;;;92.27;47.10;;;12.80;99.90;;;;;;5059660;28;20044;-77
2021/11/01 12:58:38;;;;;;;42.17;22.02;;;13.00;99.90;;;;;;5053141;28;20470;-78
2021/11/01 13:01:17;;;;;;;53.38;27.63;;;13.00;99.90;;;;;;5053802;28;20032;-78
2021/11/01 13:04:06;;;;;;;85.78;41.72;;;13.00;99.90;;;;;;5053439;28;20021;-77
2021/11/01 13:06:45;;;;;;;94.78;45.15;;;13.00;99.90;;;;;;5060026;28;20093;-77
2021/11/01 13:09:26;;;;;;;90.30;46.17;;;13.00;99.90;;;;;;5032589;28;20086;-79
2021/11/01 13:14:44;;;;;;;89.20;43.28;;;13.00;99.90;;;;;;5065752;28;20025;-78
2021/11/01 13:19:55;;;;;;;74.43;38.53;;;13.00;99.90;;;;;;5068615;28;20413;-87
2021/11/01 13:22:25;;;;;;;56.50;29.77;;;13.00;99.90;;;;;;5050017;28;20036;-86
2021/11/01 13:36:28;;;;;;;8.68;5.97;;;13.10;99.90;;;;;;5051790;28;20047;-82
2021/11/01 13:38:31;;;;;;;7.05;3.65;;;13.10;99.90;;;;;;5037649;28;20041;-82
2021/11/01 13:40:56;;;;;;;6.93;3.17;;;13.10;99.90;;;;;;5063582;28;20021;-82
2021/11/01 13:43:27;;;;;;;6.90;4.22;;;13.10;99.90;;;;;;5038312;28;20501;-82
2021/11/01 13:45:58;;;;;;;3.80;3.35;;;13.10;99.90;;;;;;5045071;28;20115;-82
2021/11/01 13:48:30;;;;;;;2.72;2.42;;;13.10;99.90;;;;;;5064719;28;20028;-83
2021/11/01 13:51:08;;;;;;;1.95;1.85;;;13.10;99.90;;;;;;5053215;28;20035;-83
2021/11/01 13:53:40;;;;;;;1.73;1.63;;;13.10;99.90;;;;;;5064605;28;20115;-84
2021/11/01 13:56:21;;;;;;;1.63;1.50;;;13.10;99.90;;;;;;5057779;28;20028;-83
2021/11/01 13:58:55;;;;;;;2.13;1.92;;;13.10;99.90;;;;;;5058536;28;20360;-83
2021/11/01 14:01:38;;;;;;;3.15;1.90;;;13.10;99.90;;;;;;5058852;28;20446;-83
2021/11/01 14:31:32;;;;;;;2.72;2.28;;;13.20;99.90;;;;;;5057851;28;20024;-86
2021/11/01 15:02:11;;;;;;;0.95;0.95;;;13.20;99.90;;;;;;5069703;28;20038;-84
2021/11/01 15:06:26;;;;;;;2.90;0.93;;;13.20;99.90;;;;;;5049601;28;20132;-85
2021/11/01 16:19:12;;;;;;;2.03;1.88;;;13.00;99.90;;;;;;5023891;28;20053;-79
2021/11/01 16:21:37;;;;;;;5.03;3.05;;;12.90;99.90;;;;;;5040863;28;20037;-79
2021/11/01 16:24:03;;;;;;;6.90;4.13;;;12.90;99.90;;;;;;5041330;28;20029;-78
2021/11/01 16:26:32;;;;;;;7.72;4.95;;;12.90;99.90;;;;;;5040459;28;20029;-79
2021/11/01 16:29:11;;;;;;;3.80;3.45;;;12.90;99.90;;;;;;5038979;28;20391;-78
2021/11/01 16:34:21;;;;;;;;;;;12.90;99.90;;;;;;5041046;28;20035;-79
2021/11/01 16:39:30;;;;;;;4.80;4.40;;;12.90;99.90;;;;;;5040417;28;20026;-78
2021/11/01 16:41:58;;;;;;;6.35;4.90;;;12.90;99.90;;;;;;5040720;28;20386;-79
2021/11/01 16:44:28;;;;;;;9.45;6.82;;;12.90;99.90;;;;;;5039974;28;20478;-79
2021/11/01 16:46:55;;;;;;;6.93;6.22;;;12.90;99.90;;;;;;5040335;28;20017;-79
2021/11/01 16:49:22;;;;;;;6.03;4.75;;;12.90;99.90;;;;;;5039485;28;20018;-79
2021/11/01 16:51:52;;;;;;;10.00;4.90;;;12.90;99.90;;;;;;5040047;28;20116;-79
2021/11/01 16:54:23;;;;;;;6.10;4.72;;;12.80;99.90;;;;;;5036436;28;20391;-79
2021/11/01 16:57:10;;;;;;;5.83;3.83;;;12.90;99.90;;;;;;5039189;28;20021;-79
2021/11/01 17:00:23;;;;;;;5.03;4.13;;;12.90;99.90;;;;;;5040656;28;20486;-79
2021/11/01 17:05:38;;;;;;;4.90;3.63;;;12.90;99.90;;;;;;5041413;28;20044;-79
2021/11/01 17:08:43;;;;;;;2.97;2.75;;;12.90;99.90;;;;;;5040831;28;20067;-79
2021/11/01 17:22:19;;;;;;;4.88;4.32;;;12.90;99.90;;;;;;5050939;28;20052;-79
2021/11/01 17:36:13;;;;;;;2.88;1.10;;;12.70;99.90;;;;;;5058605;28;20029;-79
2021/11/01 18:53:10;;;;;;;1.30;1.20;;;12.70;99.90;;;;;;5070356;28;20039;-79
2021/11/01 18:55:37;;;;;;;1.65;1.55;;;12.70;99.90;;;;;;5037623;28;20062;-80
2021/11/01 18:58:05;;;;;;;1.40;1.30;;;12.70;99.90;;;;;;5064423;28;20016;-94
2021/11/01 19:00:39;;;;;;;3.40;1.00;;;12.70;99.90;;;;;;5063228;28;20112;-93
2021/11/01 19:03:06;;;;;;;0.82;0.82;;;12.80;99.90;;;;;;5043535;28;20028;-93
2021/11/01 19:05:41;;;;;;;1.17;1.08;;;12.90;99.90;;;;;;5069468;28;20398;-91
2021/11/01 19:14:04;;;;;;;0.60;0.60;;;12.90;99.90;;;;;;5060422;28;20086;-92
2021/11/01 20:06:39;;;;;;;2.40;2.10;;;11.90;99.90;;;;;;5063759;28;20032;-92
2021/11/01 21:26:25;;;;;;;0.20;0.20;;;12.50;99.90;;;;;;5056120;28;20059;-91
2021/11/01 21:28:52;;;;;;;0.10;0.10;;;12.50;99.90;;;;;;5055982;28;20028;-92
2021/11/01 21:31:19;;;;;;;0.20;0.20;;;12.60;99.90;;;;;;5055954;28;20494;-92
2021/11/01 21:33:47;;;;;;;1.35;0.43;;;12.50;99.90;;;;;;5038528;28;20024;-92
2021/11/01 21:36:23;;;;;;;1.30;0.38;;;12.50;99.90;;;;;;5056079;28;20025;-91
2021/11/01 21:38:52;;;;;;;0.20;0.20;;;12.50;99.90;;;;;;5038079;28;20540;-93
2021/11/01 21:41:18;;;;;;;0.20;0.20;;;12.50;99.90;;;;;;5057413;28;20074;-92
2021/11/01 21:43:44;;;;;;;0.20;0.20;;;12.50;99.90;;;;;;5072463;28;20029;-92
2021/11/01 21:46:09;;;;;;;0.10;0.10;;;12.50;99.90;;;;;;5075971;28;20078;-91
2021/11/01 21:48:36;;;;;;;0.13;0.13;;;12.60;99.90;;;;;;5064567;28;20076;-92
2021/11/01 21:51:02;;;;;;;0.10;0.10;;;12.60;99.90;;;;;;5056597;28;20112;-93
2021/11/01 21:53:29;;;;;;;0.20;0.20;;;12.70;99.90;;;;;;5060555;28;20115;-93
2021/11/01 21:55:56;;;;;;;3.05;0.17;;;12.60;99.90;;;;;;5055222;28;20108;-91
2021/11/01 21:58:48;;;;;;;2.28;0.20;;;12.60;99.90;;;;;;5054941;28;20028;-93
2021/11/01 22:01:30;;;;;;;0.10;0.10;;;12.70;99.90;;;;;;5054361;28;20536;-93
2021/11/01 22:18:07;;;;;;;0.63;0.13;;;12.70;99.90;;;;;;5055907;28;20052;-91
2021/11/01 22:20:37;;;;;;;0.10;0.10;;;12.60;99.90;;;;;;5055603;28;20040;-94
2021/11/01 22:23:12;;;;;;;0.13;0.10;;;12.60;99.90;;;;;;5038018;28;20410;-92
2021/11/01 22:33:53;;;;;;;0.20;0.20;;;12.70;99.90;;;;;;5056508;28;20521;-95
2021/11/01 22:39:10;;;;;;;4.03;0.20;;;12.70;99.90;;;;;;5056793;28;20106;-94
2021/11/01 22:44:45;;;;;;;0.10;0.10;;;12.70;99.90;;;;;;5018107;28;20025;-95
2021/11/01 22:58:08;;;;;;;0.20;0.20;;;12.50;99.90;;;;;;5055313;28;20048;-93
2021/11/01 23:00:41;;;;;;;0.10;0.10;;;12.60;99.90;;;;;;5036969;28;20017;-92
2021/11/01 23:03:14;;;;;;;0.20;0.20;;;12.50;99.90;;;;;;5055210;28;20364;-90
2021/11/01 23:32:45;;;;;;;0.22;0.22;;;12.60;99.90;;;;;;5073595;28;20043;-92
2021/11/01 23:35:10;;;;;;;0.25;0.20;;;12.50;99.90;;;;;;5055606;28;20119;-92
2021/11/01 23:37:36;;;;;;;0.20;0.20;;;12.40;99.90;;;;;;5073165;28;20563;-92
2021/11/01 23:40:02;;;;;;;0.20;0.20;;;12.20;99.90;;;;;;5072970;28;20032;-92
2021/11/01 23:42:28;;;;;;;0.32;0.28;;;12.20;99.90;;;;;;5073497;28;20473;-92
2021/11/01 23:44:54;;;;;;;1.27;0.13;;;12.20;99.90;;;;;;5062259;28;20394;-92
2021/11/01 23:47:22;;;;;;;0.10;0.10;;;12.20;99.90;;;;;;5036166;28;20020;-92
2021/11/01 23:49:48;;;;;;;0.20;0.20;;;12.20;99.90;;;;;;5053696;28;20071;-92
2021/11/01 23:52:15;;;;;;;0.20;0.20;;;12.20;99.90;;;;;;5054984;28;20025;-92
2021/11/01 23:54:45;;;;;;;0.15;0.15;;;12.20;99.90;;;;;;5055168;28;20105;-93
2021/11/01 23:57:14;;;;;;;0.40;0.32;;;12.30;99.90;;;;;;5054713;28;20025;-93
2021/11/01 23:59:41;;;;;;;0.10;0.10;;;12.30;99.90;;;;;;5054718;28;20074;-92
